createdAt,value
2023-05-17T00:01:52.969Z,82.50
2023-05-17T00:04:19.613Z,82.50
2023-05-17T00:06:46.285Z,82.60
2023-05-17T00:09:12.879Z,82.50
2023-05-17T00:11:39.519Z,82.50
2023-05-17T00:14:06.160Z,82.50
2023-05-17T00:16:32.826Z,82.50
2023-05-17T00:18:59.466Z,82.50
2023-05-17T00:21:26.282Z,82.50
2023-05-17T00:23:52.954Z,82.50
2023-05-17T00:26:20.069Z,82.50
2023-05-17T00:28:46.678Z,82.50
2023-05-17T00:31:13.408Z,82.50
2023-05-17T00:33:39.977Z,82.40
2023-05-17T00:36:06.625Z,82.40
2023-05-17T00:38:33.187Z,82.40
2023-05-17T00:43:31.425Z,82.40
2023-05-17T00:45:58.042Z,82.50
2023-05-17T00:48:26.203Z,82.40
2023-05-17T00:50:53.958Z,82.50
2023-05-17T00:53:21.040Z,82.40
2023-05-17T00:55:48.185Z,82.40
2023-05-17T01:03:18.762Z,82.40
2023-05-17T01:05:45.636Z,82.40
2023-05-17T01:08:12.252Z,82.40
2023-05-17T01:10:50.566Z,82.40
2023-05-17T01:13:32.955Z,82.40
2023-05-17T01:19:13.262Z,82.40
2023-05-17T01:25:47.198Z,82.40
2023-05-17T01:28:14.842Z,82.40
2023-05-17T01:30:42.601Z,82.40
2023-05-17T01:33:09.637Z,82.40
2023-05-17T01:38:07.893Z,82.40
2023-05-17T01:40:39.347Z,82.40
2023-05-17T01:43:41.629Z,82.80
2023-05-17T01:46:32.040Z,82.30
2023-05-17T01:49:20.589Z,82.20
2023-05-17T01:54:38.955Z,82.30
2023-05-17T02:09:48.708Z,82.20
2023-05-17T02:14:47.333Z,82.20
2023-05-17T02:17:14.677Z,82.10
2023-05-17T02:24:44.276Z,82.20
2023-05-17T02:34:45.716Z,82.00
2023-05-17T02:37:12.315Z,82.10
2023-05-17T02:39:38.976Z,82.10
2023-05-17T02:42:06.000Z,82.10
2023-05-17T02:44:32.706Z,82.10
2023-05-17T02:46:59.324Z,82.00
2023-05-17T02:49:25.909Z,82.10
2023-05-17T02:51:52.530Z,82.00
2023-05-17T02:54:19.094Z,82.00
2023-05-17T02:56:45.994Z,82.00
2023-05-17T02:59:12.687Z,82.00
2023-05-17T03:01:39.364Z,82.10
2023-05-17T03:04:06.230Z,82.00
2023-05-17T03:06:34.561Z,82.00
2023-05-17T03:09:01.187Z,82.00
2023-05-17T03:11:27.869Z,82.00
2023-05-17T03:13:54.510Z,82.00
2023-05-17T03:21:24.601Z,82.00
2023-05-17T03:23:51.287Z,82.00
2023-05-17T03:26:19.650Z,82.00
2023-05-17T03:28:46.295Z,82.10
2023-05-17T03:31:13.007Z,82.00
2023-05-17T03:33:39.683Z,81.90
2023-05-17T03:36:07.245Z,82.00
2023-05-17T03:41:05.760Z,82.00
2023-05-17T03:43:32.412Z,82.00
2023-05-17T03:48:30.478Z,81.90
2023-05-17T03:50:57.204Z,81.80
2023-05-17T03:58:26.729Z,81.80
2023-05-17T04:06:06.880Z,81.80
2023-05-17T04:08:34.580Z,81.80
2023-05-17T04:11:09.973Z,81.90
2023-05-17T04:13:39.531Z,81.90
2023-05-17T04:16:07.683Z,81.90
2023-05-17T04:18:38.348Z,81.90
2023-05-17T04:21:05.656Z,81.90
2023-05-17T04:23:33.297Z,81.80
2023-05-17T04:25:59.941Z,81.80
2023-05-17T04:28:27.054Z,81.80
2023-05-17T04:30:54.120Z,81.80
2023-05-17T04:38:27.087Z,81.90
2023-05-17T04:43:25.350Z,81.80
2023-05-17T04:45:57.691Z,81.80
2023-05-17T04:51:06.480Z,81.70
2023-05-17T04:53:33.710Z,81.80
2023-05-17T04:56:00.442Z,81.80
2023-05-17T04:58:27.071Z,81.80
2023-05-17T05:00:53.669Z,81.70
2023-05-17T05:05:53.675Z,81.70
2023-05-17T05:08:20.562Z,81.70
2023-05-17T05:10:47.175Z,81.70
2023-05-17T05:13:14.073Z,81.80
2023-05-17T05:20:44.193Z,81.80
2023-05-17T05:23:10.762Z,81.70
2023-05-17T05:25:38.092Z,81.60
2023-05-17T05:28:05.028Z,81.70
2023-05-17T05:30:34.753Z,81.70
2023-05-17T05:33:01.473Z,81.70
2023-05-17T05:35:31.266Z,81.70
2023-05-17T05:37:58.915Z,81.80
2023-05-17T05:40:25.693Z,81.70
2023-05-17T05:47:56.635Z,81.70
2023-05-17T05:53:06.607Z,81.70
2023-05-17T05:55:44.349Z,81.80
2023-05-17T05:58:11.088Z,81.70
2023-05-17T06:00:37.884Z,81.70
2023-05-17T06:03:06.233Z,81.70
2023-05-17T06:05:33.555Z,81.70
2023-05-17T06:08:00.512Z,81.60
2023-05-17T06:12:58.791Z,81.70
2023-05-17T06:17:58.974Z,81.70
2023-05-17T06:20:25.723Z,81.60
2023-05-17T06:22:52.392Z,81.80
2023-05-17T06:25:19.273Z,81.60
2023-05-17T06:27:46.214Z,81.60
2023-05-17T06:30:13.368Z,81.70
2023-05-17T06:32:40.240Z,81.70
2023-05-17T06:35:07.662Z,81.70
2023-05-17T06:37:34.320Z,81.60
2023-05-17T06:40:15.007Z,81.70
2023-05-17T06:42:46.021Z,81.80
2023-05-17T06:50:15.881Z,81.70
2023-05-17T06:52:42.564Z,81.70
2023-05-17T06:57:36.815Z,81.70
2023-05-17T07:02:34.627Z,81.80
2023-05-17T07:05:01.780Z,81.80
2023-05-17T07:15:03.579Z,81.80
2023-05-17T07:17:30.491Z,81.80
2023-05-17T07:19:57.220Z,81.80
2023-05-17T07:22:23.943Z,81.80
2023-05-17T07:24:50.956Z,81.70
2023-05-17T07:34:52.427Z,81.80
2023-05-17T07:37:19.201Z,81.80
2023-05-17T07:39:45.793Z,81.80
2023-05-17T07:42:12.536Z,81.70
2023-05-17T07:44:39.123Z,81.70
2023-05-17T07:47:06.048Z,81.80
2023-05-17T07:49:32.821Z,81.80
2023-05-17T07:51:59.467Z,81.70
2023-05-17T07:54:30.001Z,81.70
2023-05-17T07:56:57.248Z,81.70
2023-05-17T07:59:24.169Z,81.80
2023-05-17T08:01:51.720Z,81.80
2023-05-17T08:09:23.383Z,81.80
2023-05-17T08:11:50.012Z,81.80
2023-05-17T08:14:17.381Z,81.80
2023-05-17T08:16:46.281Z,81.70
2023-05-17T08:19:14.987Z,81.80
2023-05-17T08:24:14.652Z,81.70
2023-05-17T08:26:41.410Z,81.70
2023-05-17T08:29:08.060Z,81.70
2023-05-17T08:31:34.820Z,81.80
2023-05-17T08:34:01.549Z,81.80
2023-05-17T08:36:28.400Z,81.80
2023-05-17T08:38:55.452Z,81.80
2023-05-17T08:41:22.160Z,81.80
2023-05-17T08:43:49.852Z,81.80
2023-05-17T08:46:21.437Z,81.80
2023-05-17T08:48:50.401Z,82.50
2023-05-17T08:53:50.922Z,81.80
2023-05-17T08:56:21.499Z,81.80
2023-05-17T08:58:56.320Z,81.80
2023-05-17T09:01:25.512Z,81.80
2023-05-17T09:03:53.667Z,81.80
2023-05-17T09:06:21.710Z,81.80
2023-05-17T09:08:52.607Z,81.80
2023-05-17T09:11:37.693Z,81.80
2023-05-17T09:14:06.664Z,81.80
2023-05-17T09:16:35.252Z,81.80
2023-05-17T09:19:03.804Z,81.80
2023-05-17T09:21:31.917Z,81.80
2023-05-17T09:24:06.976Z,81.80
2023-05-17T09:26:42.239Z,81.80
2023-05-17T09:31:41.317Z,81.80
2023-05-17T09:34:08.758Z,81.80
2023-05-17T09:36:37.290Z,81.80
2023-05-17T09:39:05.934Z,81.80
2023-05-17T09:41:40.358Z,81.80
2023-05-17T09:44:09.744Z,81.80
2023-05-17T09:46:40.976Z,81.80
2023-05-17T09:49:09.174Z,81.80
2023-05-17T09:51:47.295Z,81.80
2023-05-17T09:54:14.175Z,81.80
2023-05-17T09:56:41.411Z,81.80
2023-05-17T09:59:13.144Z,81.80
2023-05-17T10:01:41.821Z,81.70
2023-05-17T10:04:10.405Z,81.70
2023-05-17T10:06:47.588Z,81.80
2023-05-17T10:09:18.440Z,81.80
2023-05-17T10:11:47.224Z,81.70
2023-05-17T10:14:23.558Z,81.80
2023-05-17T10:16:51.985Z,81.80
2023-05-17T10:19:20.966Z,81.80
2023-05-17T10:26:57.998Z,81.80
2023-05-17T10:29:25.478Z,81.80
2023-05-17T10:31:52.148Z,81.80
2023-05-17T10:36:52.775Z,81.80
2023-05-17T10:39:21.979Z,81.80
2023-05-17T10:46:55.986Z,81.80
2023-05-17T10:49:30.202Z,81.80
2023-05-17T10:52:21.841Z,81.80
2023-05-17T10:54:50.117Z,81.70
2023-05-17T11:00:07.999Z,81.80
2023-05-17T11:02:39.836Z,81.80
2023-05-17T11:05:07.719Z,81.80
2023-05-17T11:07:37.319Z,81.80
2023-05-17T11:12:44.744Z,81.80
2023-05-17T11:15:25.520Z,81.80
2023-05-17T11:17:56.990Z,81.80
2023-05-17T11:20:26.821Z,81.80
2023-05-17T11:23:01.072Z,81.80
2023-05-17T11:30:53.497Z,81.80
2023-05-17T11:33:32.802Z,81.80
2023-05-17T11:36:06.283Z,81.70
2023-05-17T11:38:34.175Z,81.70
2023-05-17T11:43:49.702Z,81.80
2023-05-17T11:51:26.104Z,81.80
2023-05-17T11:53:55.928Z,81.80
2023-05-17T11:56:35.689Z,81.80
2023-05-17T11:59:09.552Z,81.80
2023-05-17T12:01:46.786Z,81.80
2023-05-17T12:04:13.666Z,81.80
2023-05-17T12:06:41.178Z,81.80
2023-05-17T12:09:10.908Z,81.80
2023-05-17T12:11:40.796Z,81.80
2023-05-17T12:14:07.472Z,81.80
2023-05-17T12:16:36.643Z,81.80
2023-05-17T12:19:03.763Z,81.80
2023-05-17T12:24:02.129Z,81.80
2023-05-17T12:29:01.123Z,81.80
2023-05-17T12:34:09.731Z,81.80
2023-05-17T12:44:20.522Z,82.60
2023-05-17T12:46:53.579Z,81.80
2023-05-17T12:49:21.673Z,81.80
2023-05-17T12:51:49.645Z,81.80
2023-05-17T12:54:34.429Z,81.80
2023-05-17T12:59:49.722Z,81.90
2023-05-17T13:02:17.396Z,81.80
2023-05-17T13:04:44.152Z,81.90
2023-05-17T13:17:27.029Z,82.00
2023-05-17T13:19:54.858Z,81.90
2023-05-17T13:22:21.546Z,81.90
2023-05-17T13:24:48.285Z,81.90
2023-05-17T13:27:14.955Z,82.00
2023-05-17T13:29:43.042Z,81.90
2023-05-17T13:32:13.757Z,82.70
2023-05-17T13:34:40.937Z,82.00
2023-05-17T13:37:10.557Z,82.00
2023-05-17T13:39:38.591Z,82.00
2023-05-17T13:42:05.614Z,82.00
2023-05-17T13:47:04.153Z,82.00
2023-05-17T13:49:30.960Z,82.00
2023-05-17T13:51:57.636Z,82.00
2023-05-17T13:54:24.334Z,82.10
2023-05-17T13:56:51.044Z,82.10
2023-05-17T13:59:17.699Z,82.10
2023-05-17T14:01:45.670Z,82.00
2023-05-17T14:04:12.546Z,82.10
2023-05-17T14:06:39.452Z,82.00
2023-05-17T14:09:06.493Z,82.20
2023-05-17T14:11:33.633Z,82.10
2023-05-17T14:14:01.243Z,82.10
2023-05-17T14:16:28.041Z,82.20
2023-05-17T14:18:54.930Z,82.20
2023-05-17T14:21:21.745Z,82.20
2023-05-17T14:23:48.427Z,82.10
2023-05-17T14:26:15.804Z,82.10
2023-05-17T14:28:42.407Z,82.10
2023-05-17T14:31:09.883Z,82.20
2023-05-17T14:33:37.018Z,82.20
2023-05-17T14:36:07.112Z,82.20
2023-05-17T14:46:09.702Z,82.20
2023-05-17T14:48:36.932Z,82.20
2023-05-17T14:53:35.762Z,82.20
2023-05-17T14:56:02.999Z,82.20
2023-05-17T15:01:05.698Z,82.20
2023-05-17T15:06:08.191Z,82.20
2023-05-17T15:08:37.021Z,82.20
2023-05-17T15:11:03.707Z,82.30
2023-05-17T15:13:30.851Z,82.30
2023-05-17T15:15:57.449Z,82.20
2023-05-17T15:18:24.129Z,82.30
2023-05-17T15:20:50.950Z,82.20
2023-05-17T15:23:17.691Z,82.30
2023-05-17T15:25:44.347Z,82.30
2023-05-17T15:28:11.186Z,82.40
2023-05-17T15:30:37.868Z,82.30
2023-05-17T15:33:04.740Z,82.40
2023-05-17T15:35:31.721Z,82.40
2023-05-17T15:40:31.656Z,82.40
2023-05-17T15:48:02.114Z,82.40
2023-05-17T15:50:28.943Z,82.40
2023-05-17T15:52:55.560Z,82.40
2023-05-17T15:55:22.125Z,82.40
2023-05-17T15:57:48.727Z,82.40
2023-05-17T16:00:15.645Z,82.40
2023-05-17T16:02:42.299Z,82.40
2023-05-17T16:05:09.309Z,82.40
2023-05-17T16:07:36.270Z,82.40
2023-05-17T16:17:37.865Z,82.40
2023-05-17T16:20:04.912Z,82.40
2023-05-17T16:22:31.976Z,82.40
2023-05-17T16:27:30.560Z,82.40
2023-05-17T16:29:57.214Z,82.40
2023-05-17T16:32:23.913Z,82.30
2023-05-17T16:34:50.901Z,82.40
2023-05-17T16:37:17.481Z,82.40
2023-05-17T16:39:44.227Z,82.30
2023-05-17T16:42:10.982Z,82.40
2023-05-17T16:44:38.106Z,82.40
2023-05-17T16:47:05.081Z,82.30
2023-05-17T16:52:04.076Z,82.40
2023-05-17T16:54:33.517Z,83.20
2023-05-17T16:57:00.457Z,82.40
2023-05-17T16:59:27.204Z,82.40
2023-05-17T17:01:54.038Z,82.40
2023-05-17T17:04:21.297Z,82.40
2023-05-17T17:06:48.084Z,82.20
2023-05-17T17:09:15.005Z,78.50
2023-05-17T17:11:41.661Z,77.10
2023-05-17T17:14:08.470Z,76.30
2023-05-17T17:16:35.324Z,75.40
2023-05-17T17:19:02.262Z,75.80
2023-05-17T17:21:29.933Z,74.30
2023-05-17T17:29:01.106Z,72.50
2023-05-17T17:31:27.884Z,71.70
2023-05-17T17:38:57.561Z,71.50
2023-05-17T17:43:55.832Z,71.40
2023-05-17T17:48:56.581Z,70.20
2023-05-17T17:51:23.586Z,70.70
2023-05-17T17:53:52.051Z,70.00
2023-05-17T17:56:18.759Z,69.90
2023-05-17T17:58:46.351Z,69.80
2023-05-17T18:01:13.062Z,70.40
2023-05-17T18:03:39.640Z,70.60
2023-05-17T18:08:37.831Z,70.60
2023-05-17T18:16:07.732Z,69.90
2023-05-17T18:21:06.802Z,69.30
2023-05-17T18:23:34.766Z,69.40
2023-05-17T18:26:02.477Z,69.60
2023-05-17T18:28:41.281Z,69.30
2023-05-17T18:31:08.808Z,69.70
2023-05-17T18:33:35.461Z,69.30
2023-05-17T18:36:02.118Z,69.30
2023-05-17T18:38:28.927Z,69.10
2023-05-17T18:40:55.796Z,68.90
2023-05-17T18:43:22.455Z,68.80
2023-05-17T18:45:49.137Z,68.90
2023-05-17T18:48:15.945Z,68.90
2023-05-17T18:50:42.731Z,69.10
2023-05-17T18:58:12.945Z,69.20
2023-05-17T19:03:11.209Z,68.90
2023-05-17T19:05:37.899Z,68.90
2023-05-17T19:08:04.603Z,68.80
2023-05-17T19:10:31.375Z,68.70
2023-05-17T19:12:58.195Z,68.80
2023-05-17T19:15:24.874Z,69.10
2023-05-17T19:17:51.616Z,69.10
2023-05-17T19:20:18.578Z,69.20
2023-05-17T19:22:45.200Z,69.20
2023-05-17T19:25:11.934Z,69.00
2023-05-17T19:27:39.025Z,69.10
2023-05-17T19:30:07.235Z,69.10
2023-05-17T19:32:33.935Z,69.10
2023-05-17T19:35:01.375Z,69.20
2023-05-17T19:37:28.668Z,69.50
2023-05-17T19:39:55.542Z,69.60
2023-05-17T19:42:22.215Z,69.60
2023-05-17T19:44:48.819Z,70.00
2023-05-17T19:47:15.661Z,69.90
2023-05-17T19:49:43.092Z,70.10
2023-05-17T19:52:09.820Z,70.10
2023-05-17T19:54:36.571Z,70.20
2023-05-17T19:59:34.974Z,70.30
2023-05-17T20:04:33.441Z,70.50
2023-05-17T20:07:00.034Z,70.50
2023-05-17T20:09:30.081Z,70.40
2023-05-17T20:14:28.983Z,70.50
2023-05-17T20:16:55.733Z,70.40
2023-05-17T20:32:05.783Z,70.10
2023-05-17T20:42:09.588Z,69.90
2023-05-17T20:44:36.249Z,69.90
2023-05-17T20:47:04.693Z,69.90
2023-05-17T20:49:31.840Z,70.00
2023-05-17T20:54:34.793Z,70.00
2023-05-17T20:59:33.421Z,69.80
2023-05-17T21:02:00.239Z,70.50
2023-05-17T21:17:02.171Z,69.80
2023-05-17T21:19:29.337Z,69.70
2023-05-17T21:21:55.929Z,69.70
2023-05-17T21:24:22.700Z,69.60
2023-05-17T21:26:49.301Z,69.90
2023-05-17T21:29:15.866Z,69.60
2023-05-17T21:31:42.566Z,69.50
2023-05-17T21:34:09.186Z,69.80
2023-05-17T21:36:35.859Z,69.70
2023-05-17T21:39:02.434Z,69.70
2023-05-17T21:41:29.029Z,69.60
2023-05-17T21:43:55.645Z,69.70
2023-05-17T21:46:22.267Z,69.60
2023-05-17T21:48:48.844Z,69.50
2023-05-17T21:51:16.626Z,69.60
2023-05-17T21:53:43.250Z,69.60
2023-05-17T21:56:10.024Z,69.60
2023-05-17T21:58:36.627Z,69.50
2023-05-17T22:01:03.321Z,69.50
2023-05-17T22:08:33.311Z,69.60
2023-05-17T22:10:59.891Z,69.70
2023-05-17T22:13:27.045Z,69.80
2023-05-17T22:15:57.085Z,69.80
2023-05-17T22:20:58.996Z,69.70
2023-05-17T22:23:26.320Z,69.60
2023-05-17T22:25:53.102Z,69.60
2023-05-17T22:28:19.757Z,69.90
2023-05-17T22:30:46.487Z,69.80
2023-05-17T22:33:13.400Z,70.40
2023-05-17T22:35:41.328Z,69.80
2023-05-17T22:38:08.053Z,69.70
2023-05-17T22:40:34.671Z,69.60
2023-05-17T22:43:01.303Z,69.70
2023-05-17T22:45:32.759Z,69.70
2023-05-17T22:48:02.701Z,69.60
2023-05-17T22:50:30.851Z,69.80
2023-05-17T22:53:01.676Z,69.80
2023-05-17T22:55:28.627Z,69.90
2023-05-17T22:57:55.620Z,69.80
2023-05-17T23:00:22.276Z,69.90
2023-05-17T23:02:48.925Z,69.80
2023-05-17T23:05:15.689Z,69.90
2023-05-17T23:07:43.284Z,69.80
2023-05-17T23:10:10.939Z,70.00
2023-05-17T23:17:42.056Z,69.80
2023-05-17T23:20:10.230Z,70.00
2023-05-17T23:25:09.598Z,70.10
2023-05-17T23:27:36.559Z,70.00
2023-05-17T23:30:04.459Z,69.90
2023-05-17T23:32:32.504Z,69.90
2023-05-17T23:35:03.602Z,70.00
2023-05-17T23:37:31.490Z,70.10
2023-05-17T23:39:58.496Z,70.00
2023-05-17T23:42:26.319Z,69.90
2023-05-17T23:47:25.648Z,70.00
2023-05-17T23:49:52.694Z,69.80
2023-05-17T23:52:19.434Z,69.80
2023-05-17T23:57:18.878Z,69.90
2023-05-17T23:59:45.779Z,69.90
